Time,TemperatureF,DewpointF,PressureIn,WindDirection,WindDirectionDegrees,WindSpeedMPH,WindSpeedGustMPH,Humidity,HourlyPrecipIn,Conditions,Clouds,dailyrainin,SolarRadiationWatts/m^2,SoftwareType,DateUTC
2013-10-28 00:01:00,34.3,32.5,30.21,WNW,294,0.0,0.0,93,0.00,,,0.00,0.0,meteohub,2013-10-28 04:01:00,
2013-10-28 00:02:00,34.3,32.5,30.21,WNW,294,0.0,0.0,93,0.00,,,0.00,0.0,meteohub,2013-10-28 04:02:00,
2013-10-28 00:05:00,34.3,32.5,30.21,WNW,294,0.0,0.0,93,0.00,,,0.00,0.0,meteohub,2013-10-28 04:05:00,
2013-10-28 00:06:00,34.3,32.5,30.21,WNW,294,0.0,0.0,93,0.00,,,0.00,0.0,meteohub,2013-10-28 04:06:00,
2013-10-28 00:11:00,34.3,32.5,30.21,WNW,294,0.0,0.0,93,0.00,,,0.00,0.0,meteohub,2013-10-28 04:11:00,
2013-10-28 00:16:00,34.3,32.7,30.21,WNW,294,0.0,0.0,94,0.00,,,0.00,0.0,meteohub,2013-10-28 04:16:00,
2013-10-28 00:21:00,34.3,32.7,30.21,WNW,294,0.0,0.0,94,0.00,,,0.00,0.0,meteohub,2013-10-28 04:21:00,
2013-10-28 00:27:00,34.5,32.9,30.21,WNW,294,0.0,0.0,94,0.00,,,0.00,0.0,meteohub,2013-10-28 04:27:00,
2013-10-28 00:32:00,34.5,32.9,30.21,WNW,294,0.0,0.0,94,0.00,,,0.00,0.0,meteohub,2013-10-28 04:32:00,
2013-10-28 00:37:00,34.5,33.3,30.20,WNW,294,0.0,0.0,95,0.00,,,0.00,0.0,meteohub,2013-10-28 04:37:00,
2013-10-28 00:42:00,34.5,33.3,30.20,WNW,294,0.0,0.0,95,0.00,,,0.00,0.0,meteohub,2013-10-28 04:42:00,
2013-10-28 00:47:00,34.7,33.4,30.20,WNW,294,0.0,0.0,95,0.00,,,0.00,0.0,meteohub,2013-10-28 04:47:00,
2013-10-28 00:52:00,34.7,33.4,30.21,WNW,294,0.0,0.0,95,0.00,,,0.00,0.0,meteohub,2013-10-28 04:52:00,
2013-10-28 00:57:00,34.9,33.6,30.21,WNW,294,1.0,0.0,95,0.00,,,0.00,0.0,meteohub,2013-10-28 04:57:00,
2013-10-28 01:02:00,34.9,33.6,30.21,WNW,294,0.0,1.0,95,0.00,,,0.00,0.0,meteohub,2013-10-28 05:02:00,
2013-10-28 01:07:00,34.9,33.6,30.21,WNW,294,0.0,1.0,95,0.00,,,0.00,0.0,meteohub,2013-10-28 05:07:00,
2013-10-28 01:12:00,34.9,33.6,30.21,WNW,294,0.0,1.0,95,0.00,,,0.00,0.0,meteohub,2013-10-28 05:12:00,
2013-10-28 01:17:00,35.1,33.8,30.21,WNW,294,0.0,0.0,95,0.00,,,0.00,0.0,meteohub,2013-10-28 05:17:00,
2013-10-28 01:22:00,35.1,33.8,30.21,WNW,294,0.0,0.0,95,0.00,,,0.00,0.0,meteohub,2013-10-28 05:22:00,
2013-10-28 01:27:00,35.1,33.8,30.21,WNW,294,0.0,0.0,95,0.00,,,0.00,0.0,meteohub,2013-10-28 05:27:00,
2013-10-28 01:32:00,35.2,34.0,30.21,WNW,294,0.0,0.0,95,0.00,,,0.00,0.0,meteohub,2013-10-28 05:32:00,
2013-10-28 01:37:00,35.2,34.0,30.21,WNW,294,0.0,0.0,95,0.00,,,0.00,0.0,meteohub,2013-10-28 05:37:00,
2013-10-28 01:42:00,35.2,34.2,30.21,WNW,294,0.0,0.0,96,0.00,,,0.00,0.0,meteohub,2013-10-28 05:42:00,
2013-10-28 01:47:00,35.6,34.5,30.21,WNW,294,0.0,0.0,96,0.00,,,0.00,0.0,meteohub,2013-10-28 05:47:00,
2013-10-28 01:53:00,35.6,34.5,30.21,WNW,294,0.0,1.0,96,0.00,,,0.00,0.0,meteohub,2013-10-28 05:53:00,
2013-10-28 01:58:00,35.8,34.7,30.20,WNW,294,0.0,1.0,96,0.00,,,0.00,0.0,meteohub,2013-10-28 05:58:00,
2013-10-28 02:03:00,35.8,34.7,30.20,WNW,294,0.0,0.0,96,0.00,,,0.00,0.0,meteohub,2013-10-28 06:03:00,
2013-10-28 02:08:00,35.8,34.7,30.20,WNW,294,0.0,0.0,96,0.00,,,0.00,0.0,meteohub,2013-10-28 06:08:00,
2013-10-28 02:13:00,35.8,34.7,30.20,WNW,294,0.0,0.0,96,0.00,,,0.00,0.0,meteohub,2013-10-28 06:13:00,
2013-10-28 02:18:00,35.8,34.5,30.20,WNW,294,0.0,0.0,95,0.00,,,0.00,0.0,meteohub,2013-10-28 06:18:00,
2013-10-28 02:23:00,35.6,34.3,30.21,WNW,294,0.0,0.0,95,0.00,,,0.00,0.0,meteohub,2013-10-28 06:23:00,
2013-10-28 02:28:00,35.4,34.2,30.21,WNW,294,0.0,0.0,95,0.00,,,0.00,0.0,meteohub,2013-10-28 06:28:00,
2013-10-28 02:33:00,35.4,34.2,30.21,WNW,294,0.0,0.0,95,0.00,,,0.00,0.0,meteohub,2013-10-28 06:33:00,
2013-10-28 02:38:00,35.4,34.2,30.21,WNW,294,0.0,0.0,95,0.00,,,0.00,0.0,meteohub,2013-10-28 06:38:00,
2013-10-28 02:43:00,35.4,34.3,30.21,WNW,294,0.0,0.0,96,0.00,,,0.00,0.0,meteohub,2013-10-28 06:43:00,
2013-10-28 02:48:00,35.4,34.3,30.21,WNW,294,0.0,0.0,96,0.00,,,0.00,0.0,meteohub,2013-10-28 06:48:00,
2013-10-28 02:53:00,35.6,34.5,30.21,WNW,294,0.0,0.0,96,0.00,,,0.00,0.0,meteohub,2013-10-28 06:53:00,
2013-10-28 02:58:00,35.8,34.7,30.21,WNW,294,0.0,0.0,96,0.00,,,0.00,0.0,meteohub,2013-10-28 06:58:00,
2013-10-28 03:03:00,35.8,34.7,30.21,WNW,294,0.0,0.0,96,0.00,,,0.00,0.0,meteohub,2013-10-28 07:03:00,
2013-10-28 03:08:00,35.8,34.7,30.21,WNW,294,0.0,0.0,96,0.00,,,0.00,0.0,meteohub,2013-10-28 07:08:00,
2013-10-28 03:14:00,36.0,34.9,30.21,WNW,294,0.0,0.0,96,0.00,,,0.00,0.0,meteohub,2013-10-28 07:14:00,
2013-10-28 03:19:00,36.1,35.4,30.22,WNW,294,0.0,0.0,97,0.00,,,0.00,0.0,meteohub,2013-10-28 07:19:00,
2013-10-28 03:24:00,36.7,36.0,30.22,WNW,294,0.0,1.0,97,0.00,,,0.00,0.0,meteohub,2013-10-28 07:24:00,
2013-10-28 03:29:00,36.9,36.1,30.22,WNW,294,0.0,1.0,97,0.00,,,0.00,0.0,meteohub,2013-10-28 07:29:00,
2013-10-28 03:34:00,37.2,36.5,30.22,WNW,294,0.0,0.0,97,0.00,,,0.00,0.0,meteohub,2013-10-28 07:34:00,
2013-10-28 03:39:00,37.6,36.9,30.21,WNW,294,0.0,0.0,97,0.00,,,0.00,0.0,meteohub,2013-10-28 07:39:00,
2013-10-28 03:44:00,37.9,37.2,30.21,WNW,294,1.0,1.0,97,0.00,,,0.00,0.0,meteohub,2013-10-28 07:44:00,
2013-10-28 03:49:00,38.3,37.6,30.21,North,2,1.0,1.0,97,0.00,,,0.00,0.0,meteohub,2013-10-28 07:49:00,
2013-10-28 03:54:00,38.7,37.9,30.21,North,2,0.0,2.0,97,0.00,,,0.00,0.0,meteohub,2013-10-28 07:54:00,
2013-10-28 03:59:00,38.8,38.1,30.21,North,2,0.0,2.0,97,0.00,,,0.00,0.0,meteohub,2013-10-28 07:59:00,
2013-10-28 04:04:00,39.0,38.3,30.20,North,2,0.0,2.0,97,0.00,,,0.00,0.0,meteohub,2013-10-28 08:04:00,
2013-10-28 04:09:00,39.4,38.7,30.21,North,2,0.0,1.0,97,0.00,,,0.00,0.0,meteohub,2013-10-28 08:09:00,
2013-10-28 04:14:00,39.6,38.8,30.21,North,2,0.0,0.0,97,0.00,,,0.00,0.0,meteohub,2013-10-28 08:14:00,
2013-10-28 04:19:00,39.7,38.7,30.21,North,2,0.0,0.0,96,0.00,,,0.00,0.0,meteohub,2013-10-28 08:19:00,
2013-10-28 04:25:00,39.7,38.7,30.21,North,2,0.0,0.0,96,0.00,,,0.00,0.0,meteohub,2013-10-28 08:25:00,
2013-10-28 04:30:00,39.9,38.8,30.21,North,2,0.0,0.0,96,0.00,,,0.00,0.0,meteohub,2013-10-28 08:30:00,
2013-10-28 04:35:00,40.1,39.0,30.22,North,2,0.0,0.0,96,0.00,,,0.00,0.0,meteohub,2013-10-28 08:35:00,
2013-10-28 04:40:00,40.3,39.2,30.22,North,2,0.0,0.0,96,0.00,,,0.00,0.0,meteohub,2013-10-28 08:40:00,
2013-10-28 04:45:00,40.5,39.4,30.22,North,2,0.0,0.0,96,0.00,,,0.00,0.0,meteohub,2013-10-28 08:45:00,
2013-10-28 04:50:00,40.6,39.6,30.22,North,2,0.0,0.0,96,0.00,,,0.00,0.0,meteohub,2013-10-28 08:50:00,
2013-10-28 04:55:00,40.8,39.7,30.22,North,2,0.0,1.0,96,0.00,,,0.00,0.0,meteohub,2013-10-28 08:55:00,
2013-10-28 05:00:00,41.2,40.1,30.22,North,2,0.0,1.0,96,0.00,,,0.00,0.0,meteohub,2013-10-28 09:00:00,
2013-10-28 05:05:00,41.4,40.3,30.22,North,2,0.0,0.0,96,0.00,,,0.00,0.0,meteohub,2013-10-28 09:05:00,
2013-10-28 05:10:00,41.5,40.5,30.22,North,2,0.0,0.0,96,0.00,,,0.00,0.0,meteohub,2013-10-28 09:10:00,
2013-10-28 05:15:00,41.7,40.6,30.22,North,2,0.0,0.0,96,0.00,,,0.00,0.0,meteohub,2013-10-28 09:15:00,
2013-10-28 05:20:00,42.1,41.0,30.22,North,2,0.0,0.0,96,0.00,,,0.00,0.0,meteohub,2013-10-28 09:20:00,
2013-10-28 05:25:00,42.3,41.0,30.22,North,2,0.0,0.0,95,0.00,,,0.00,0.0,meteohub,2013-10-28 09:25:00,
2013-10-28 05:31:00,42.3,41.0,30.22,North,2,0.0,1.0,95,0.00,,,0.00,0.0,meteohub,2013-10-28 09:31:00,
2013-10-28 05:36:00,42.4,41.2,30.22,North,2,0.0,1.0,95,0.00,,,0.00,0.0,meteohub,2013-10-28 09:36:00,
2013-10-28 05:41:00,42.6,41.4,30.22,North,2,0.0,0.0,95,0.00,,,0.00,0.0,meteohub,2013-10-28 09:41:00,
2013-10-28 05:46:00,42.8,41.5,30.22,North,2,1.0,1.0,95,0.00,,,0.00,0.0,meteohub,2013-10-28 09:46:00,
2013-10-28 05:51:00,43.0,41.4,30.22,NNE,21,3.0,3.0,94,0.00,,,0.00,0.0,meteohub,2013-10-28 09:51:00,
2013-10-28 05:56:00,43.2,41.5,30.22,North,10,0.0,4.0,94,0.00,,,0.00,0.0,meteohub,2013-10-28 09:56:00,
2013-10-28 06:01:00,43.3,41.7,30.22,North,11,0.0,4.0,94,0.00,,,0.00,0.0,meteohub,2013-10-28 10:01:00,
2013-10-28 06:06:00,43.3,41.5,30.22,North,11,0.0,4.0,93,0.00,,,0.00,0.0,meteohub,2013-10-28 10:06:00,
2013-10-28 06:11:00,43.5,41.7,30.22,North,10,0.0,1.0,93,0.00,,,0.00,0.0,meteohub,2013-10-28 10:11:00,
2013-10-28 06:16:00,43.3,41.2,30.22,North,11,0.0,1.0,92,0.00,,,0.00,0.0,meteohub,2013-10-28 10:16:00,
2013-10-28 06:21:00,43.2,41.0,30.22,North,11,0.0,2.0,92,0.00,,,0.00,0.0,meteohub,2013-10-28 10:21:00,
2013-10-28 06:26:00,43.2,41.0,30.22,North,11,0.0,2.0,92,0.00,,,0.00,0.0,meteohub,2013-10-28 10:26:00,
2013-10-28 06:31:00,43.0,40.8,30.23,North,10,0.0,2.0,92,0.00,,,0.00,0.0,meteohub,2013-10-28 10:31:00,
2013-10-28 06:36:00,43.0,40.8,30.23,North,9,1.0,1.0,92,0.00,,,0.00,0.0,meteohub,2013-10-28 10:36:00,
2013-10-28 06:41:00,42.8,41.0,30.24,SW,232,0.0,2.0,93,0.00,,,0.00,0.0,meteohub,2013-10-28 10:41:00,
2013-10-28 06:47:00,43.0,41.2,30.24,SW,226,2.0,3.0,93,0.00,,,0.00,0.0,meteohub,2013-10-28 10:47:00,
2013-10-28 06:52:00,43.2,41.4,30.24,SW,226,0.0,3.0,93,0.00,,,0.00,0.0,meteohub,2013-10-28 10:52:00,
2013-10-28 06:57:00,43.2,41.4,30.24,SW,226,0.0,3.0,93,0.00,,,0.00,0.0,meteohub,2013-10-28 10:57:00,
2013-10-28 07:02:00,43.3,41.5,30.24,SW,226,0.0,2.0,93,0.00,,,0.00,0.0,meteohub,2013-10-28 11:02:00,
2013-10-28 07:07:00,43.3,41.5,30.24,SW,226,0.0,1.0,93,0.00,,,0.00,0.0,meteohub,2013-10-28 11:07:00,
2013-10-28 07:12:00,43.5,41.7,30.24,SW,226,0.0,1.0,93,0.00,,,0.00,0.0,meteohub,2013-10-28 11:12:00,
2013-10-28 07:17:00,43.5,41.7,30.24,SW,226,0.0,1.0,93,0.00,,,0.00,0.0,meteohub,2013-10-28 11:17:00,
2013-10-28 07:22:00,43.5,41.7,30.25,SW,226,0.0,1.0,93,0.00,,,0.00,0.0,meteohub,2013-10-28 11:22:00,
2013-10-28 07:27:00,43.3,41.5,30.25,SW,226,0.0,1.0,93,0.00,,,0.00,0.0,meteohub,2013-10-28 11:27:00,
2013-10-28 07:32:00,43.3,41.5,30.25,SW,226,0.0,0.0,93,0.00,,,0.00,0.0,meteohub,2013-10-28 11:32:00,
2013-10-28 07:37:00,43.3,41.5,30.25,SW,225,0.0,0.0,93,0.00,,,0.00,0.0,meteohub,2013-10-28 11:37:00,
2013-10-28 07:42:00,43.3,41.5,30.25,SW,226,0.0,1.0,93,0.00,,,0.00,0.0,meteohub,2013-10-28 11:42:00,
2013-10-28 07:47:00,43.2,41.4,30.25,SW,226,0.0,1.0,93,0.00,,,0.00,0.0,meteohub,2013-10-28 11:47:00,
2013-10-28 07:52:00,43.2,41.4,30.25,SW,226,0.0,1.0,93,0.00,,,0.00,0.0,meteohub,2013-10-28 11:52:00,
2013-10-28 07:57:00,43.2,41.4,30.25,SW,226,0.0,1.0,93,0.00,,,0.00,0.0,meteohub,2013-10-28 11:57:00,
2013-10-28 08:02:00,43.0,41.2,30.26,SW,226,0.0,1.0,93,0.00,,,0.00,0.0,meteohub,2013-10-28 12:02:00,
2013-10-28 08:07:00,42.8,40.6,30.26,SW,226,0.0,0.0,92,0.00,,,0.00,7.0,meteohub,2013-10-28 12:07:00,
2013-10-28 08:12:00,42.4,40.3,30.26,SW,225,0.0,0.0,92,0.00,,,0.00,11.0,meteohub,2013-10-28 12:12:00,
2013-10-28 08:17:00,42.3,40.1,30.26,SW,226,0.0,0.0,92,0.00,,,0.00,16.0,meteohub,2013-10-28 12:17:00,
2013-10-28 08:22:00,42.1,39.9,30.27,SW,226,0.0,0.0,92,0.00,,,0.00,21.0,meteohub,2013-10-28 12:22:00,
2013-10-28 08:27:00,41.9,40.1,30.27,SW,226,0.0,0.0,93,0.00,,,0.00,33.0,meteohub,2013-10-28 12:27:00,
2013-10-28 08:32:00,41.9,40.3,30.27,SW,225,0.0,0.0,94,0.00,,,0.00,51.0,meteohub,2013-10-28 12:32:00,
2013-10-28 08:37:00,42.1,40.8,30.27,SW,226,0.0,1.0,95,0.00,,,0.00,65.0,meteohub,2013-10-28 12:37:00,
2013-10-28 08:42:00,42.3,41.0,30.27,SW,226,0.0,1.0,95,0.00,,,0.00,60.0,meteohub,2013-10-28 12:42:00,
2013-10-28 08:47:00,42.4,41.2,30.28,SW,225,0.0,1.0,95,0.00,,,0.00,72.0,meteohub,2013-10-28 12:47:00,
2013-10-28 08:52:00,42.8,41.7,30.28,SW,226,0.0,0.0,96,0.00,,,0.00,74.0,meteohub,2013-10-28 12:52:00,
2013-10-28 08:57:00,43.3,42.3,30.28,SW,226,0.0,0.0,96,0.00,,,0.00,65.0,meteohub,2013-10-28 12:57:00,
2013-10-28 09:02:00,43.9,42.8,30.28,SW,226,0.0,0.0,96,0.00,,,0.00,56.0,meteohub,2013-10-28 13:02:00,
2013-10-28 09:07:00,44.4,43.3,30.28,SW,226,0.0,0.0,96,0.00,,,0.00,69.0,meteohub,2013-10-28 13:07:00,
2013-10-28 09:12:00,45.0,43.9,30.28,SW,225,0.0,0.0,96,0.00,,,0.00,84.0,meteohub,2013-10-28 13:12:00,
2013-10-28 09:17:00,45.5,44.2,30.28,SW,226,0.0,0.0,95,0.00,,,0.00,100.0,meteohub,2013-10-28 13:17:00,
2013-10-28 09:22:00,46.0,44.6,30.28,SW,225,0.0,1.0,95,0.00,,,0.00,118.0,meteohub,2013-10-28 13:22:00,
2013-10-28 09:27:00,46.8,45.1,30.28,SW,225,0.0,2.0,94,0.00,,,0.00,113.0,meteohub,2013-10-28 13:27:00,
2013-10-28 09:32:00,47.3,45.3,30.29,SW,226,1.0,2.0,93,0.00,,,0.00,95.0,meteohub,2013-10-28 13:32:00,
2013-10-28 09:37:00,48.0,45.1,30.29,NNE,13,0.0,3.0,90,0.00,,,0.00,139.0,meteohub,2013-10-28 13:37:00,
2013-10-28 09:42:00,48.6,45.1,30.29,NNE,13,0.0,3.0,88,0.00,,,0.00,113.0,meteohub,2013-10-28 13:42:00,
2013-10-28 09:47:00,49.3,45.5,30.29,NNE,13,0.0,3.0,87,0.00,,,0.00,81.0,meteohub,2013-10-28 13:47:00,
2013-10-28 09:52:00,49.6,45.7,30.29,NNE,16,2.0,3.0,86,0.00,,,0.00,74.0,meteohub,2013-10-28 13:52:00,
2013-10-28 09:57:00,50.0,45.0,30.29,North,10,2.0,3.0,83,0.00,,,0.00,72.0,meteohub,2013-10-28 13:57:00,
2013-10-28 10:02:00,50.2,45.1,30.30,NNE,29,3.0,4.0,83,0.00,,,0.00,63.0,meteohub,2013-10-28 14:02:00,
2013-10-28 10:07:00,50.2,44.6,30.30,North,8,2.0,4.0,81,0.00,,,0.00,76.0,meteohub,2013-10-28 14:07:00,
2013-10-28 10:12:00,50.4,44.8,30.30,North,5,1.0,4.0,81,0.00,,,0.00,95.0,meteohub,2013-10-28 14:12:00,
2013-10-28 10:17:00,50.4,44.8,30.30,North,5,0.0,4.0,81,0.00,,,0.00,93.0,meteohub,2013-10-28 14:17:00,
2013-10-28 10:22:00,50.2,44.2,30.30,NW,318,0.0,4.0,80,0.00,,,0.00,105.0,meteohub,2013-10-28 14:22:00,
2013-10-28 10:27:00,50.0,44.4,30.30,WNW,301,0.0,3.0,81,0.00,,,0.00,104.0,meteohub,2013-10-28 14:27:00,
2013-10-28 10:32:00,49.8,44.2,30.30,NNW,344,1.0,3.0,81,0.00,,,0.00,113.0,meteohub,2013-10-28 14:32:00,
2013-10-28 10:37:00,50.0,44.4,30.30,NNW,344,2.0,3.0,81,0.00,,,0.00,127.0,meteohub,2013-10-28 14:37:00,
2013-10-28 10:42:00,50.2,45.0,30.30,NNE,30,1.0,3.0,82,0.00,,,0.00,107.0,meteohub,2013-10-28 14:42:00,
2013-10-28 10:47:00,50.4,44.4,30.30,North,2,2.0,3.0,80,0.00,,,0.00,90.0,meteohub,2013-10-28 14:47:00,
2013-10-28 10:52:00,50.4,44.1,30.30,ENE,71,1.0,3.0,79,0.00,,,0.00,105.0,meteohub,2013-10-28 14:52:00,
2013-10-28 10:57:00,50.4,44.1,30.30,NE,42,0.0,3.0,79,0.00,,,0.00,130.0,meteohub,2013-10-28 14:57:00,
2013-10-28 11:02:00,50.5,44.2,30.30,NNE,17,0.0,3.0,79,0.00,,,0.00,132.0,meteohub,2013-10-28 15:02:00,
2013-10-28 11:07:00,50.7,44.8,30.30,NNE,27,1.0,2.0,80,0.00,,,0.00,120.0,meteohub,2013-10-28 15:07:00,
2013-10-28 11:12:00,51.1,44.8,30.30,NE,36,0.0,3.0,79,0.00,,,0.00,104.0,meteohub,2013-10-28 15:12:00,
2013-10-28 11:18:00,51.3,45.0,30.30,NE,43,0.0,3.0,79,0.00,,,0.00,104.0,meteohub,2013-10-28 15:18:00,
2013-10-28 11:23:00,51.3,43.9,30.30,East,99,0.0,3.0,76,0.00,,,0.00,91.0,meteohub,2013-10-28 15:23:00,
2013-10-28 11:28:00,51.4,44.1,30.30,East,88,0.0,3.0,76,0.00,,,0.00,86.0,meteohub,2013-10-28 15:28:00,
2013-10-28 11:33:00,51.4,44.1,30.30,NE,43,2.0,3.0,76,0.00,,,0.00,91.0,meteohub,2013-10-28 15:33:00,
2013-10-28 11:38:00,51.4,44.4,30.31,ENE,73,1.0,4.0,77,0.00,,,0.00,93.0,meteohub,2013-10-28 15:38:00,
2013-10-28 11:43:00,51.6,43.9,30.31,ENE,65,3.0,4.0,75,0.00,,,0.00,98.0,meteohub,2013-10-28 15:43:00,
2013-10-28 11:48:00,51.6,44.2,30.31,NE,34,0.0,4.0,76,0.00,,,0.00,90.0,meteohub,2013-10-28 15:48:00,
2013-10-28 11:53:00,51.8,44.1,30.31,NNE,30,2.0,3.0,75,0.00,,,0.00,90.0,meteohub,2013-10-28 15:53:00,
2013-10-28 11:58:00,51.8,44.1,30.31,NE,45,1.0,3.0,75,0.00,,,0.00,90.0,meteohub,2013-10-28 15:58:00,
2013-10-28 12:03:00,52.0,44.6,30.31,ENE,65,1.0,3.0,76,0.00,,,0.00,84.0,meteohub,2013-10-28 16:03:00,
2013-10-28 12:08:00,52.0,44.2,30.30,ENE,71,1.0,3.0,75,0.00,,,0.00,93.0,meteohub,2013-10-28 16:08:00,
2013-10-28 12:13:00,52.2,44.8,30.30,ESE,118,2.0,3.0,76,0.00,,,0.00,100.0,meteohub,2013-10-28 16:13:00,
2013-10-28 12:18:00,52.2,44.8,30.30,ESE,113,1.0,3.0,76,0.00,,,0.00,109.0,meteohub,2013-10-28 16:18:00,
2013-10-28 12:23:00,52.3,45.3,30.30,SE,127,0.0,3.0,77,0.00,,,0.00,142.0,meteohub,2013-10-28 16:23:00,
2013-10-28 12:28:00,52.5,45.5,30.30,SE,127,1.0,3.0,77,0.00,,,0.00,155.0,meteohub,2013-10-28 16:28:00,
2013-10-28 12:34:00,52.7,45.0,30.30,ESE,115,0.0,3.0,75,0.00,,,0.00,151.0,meteohub,2013-10-28 16:34:00,
2013-10-28 12:39:00,52.9,44.8,30.30,East,91,2.0,4.0,74,0.00,,,0.00,146.0,meteohub,2013-10-28 16:39:00,
2013-10-28 12:44:00,53.1,45.0,30.30,ESE,108,2.0,4.0,74,0.00,,,0.00,149.0,meteohub,2013-10-28 16:44:00,
2013-10-28 12:49:00,53.1,44.6,30.30,East,85,1.0,4.0,73,0.00,,,0.00,163.0,meteohub,2013-10-28 16:49:00,
2013-10-28 12:54:00,53.2,45.5,30.30,ESE,102,0.0,4.0,75,0.00,,,0.00,176.0,meteohub,2013-10-28 16:54:00,
2013-10-28 12:59:00,53.4,45.3,30.30,ESE,120,0.0,4.0,74,0.00,,,0.00,167.0,meteohub,2013-10-28 16:59:00,
2013-10-28 13:04:00,53.6,45.1,30.30,SE,128,1.0,3.0,73,0.00,,,0.00,204.0,meteohub,2013-10-28 17:04:00,
2013-10-28 13:09:00,53.8,45.7,30.29,East,90,2.0,3.0,74,0.00,,,0.00,223.0,meteohub,2013-10-28 17:09:00,
2013-10-28 13:14:00,54.1,46.0,30.28,ENE,77,1.0,3.0,74,0.00,,,0.00,229.0,meteohub,2013-10-28 17:14:00,
2013-10-28 13:19:00,54.3,46.2,30.28,ESE,113,1.0,6.0,74,0.00,,,0.00,250.0,meteohub,2013-10-28 17:19:00,
2013-10-28 13:24:00,54.9,46.0,30.28,ESE,112,0.0,6.0,72,0.00,,,0.00,216.0,meteohub,2013-10-28 17:24:00,
2013-10-28 13:29:00,55.0,45.9,30.28,ESE,121,0.0,4.0,71,0.00,,,0.00,214.0,meteohub,2013-10-28 17:29:00,
2013-10-28 13:35:00,55.0,45.5,30.29,NE,56,0.0,4.0,70,0.00,,,0.00,213.0,meteohub,2013-10-28 17:35:00,
2013-10-28 13:40:00,55.4,46.2,30.29,NNE,15,2.0,4.0,71,0.00,,,0.00,253.0,meteohub,2013-10-28 17:40:00,
2013-10-28 13:45:00,55.8,46.0,30.27,ENE,65,0.0,4.0,70,0.00,,,0.00,281.0,meteohub,2013-10-28 17:45:00,
2013-10-28 13:50:00,56.5,46.4,30.27,NE,53,3.0,4.0,69,0.00,,,0.00,348.0,meteohub,2013-10-28 17:50:00,
2013-10-28 13:55:00,57.2,45.9,30.27,East,86,1.0,3.0,66,0.00,,,0.00,327.0,meteohub,2013-10-28 17:55:00,
2013-10-28 14:00:00,57.4,46.0,30.27,NE,37,0.0,3.0,66,0.00,,,0.00,244.0,meteohub,2013-10-28 18:00:00,
2013-10-28 14:05:00,57.4,45.3,30.26,NE,40,2.0,5.0,64,0.00,,,0.00,274.0,meteohub,2013-10-28 18:05:00,
2013-10-28 14:10:00,58.6,48.2,30.27,SE,136,0.0,5.0,68,0.00,,,0.00,295.0,meteohub,2013-10-28 18:10:00,
2013-10-28 14:15:00,58.6,45.7,30.26,NE,36,1.0,5.0,62,0.00,,,0.00,278.0,meteohub,2013-10-28 18:15:00,
2013-10-28 14:20:00,58.5,44.6,30.26,NE,43,0.0,5.0,60,0.00,,,0.00,269.0,meteohub,2013-10-28 18:20:00,
2013-10-28 14:25:00,58.3,44.4,30.26,ESE,123,1.0,5.0,60,0.00,,,0.00,174.0,meteohub,2013-10-28 18:25:00,
2013-10-28 14:30:00,58.1,45.1,30.26,East,83,1.0,4.0,62,0.00,,,0.00,193.0,meteohub,2013-10-28 18:30:00,
2013-10-28 14:36:00,58.3,46.2,30.26,ENE,69,0.0,4.0,64,0.00,,,0.00,209.0,meteohub,2013-10-28 18:36:00,
2013-10-28 14:41:00,58.5,44.6,30.25,East,97,3.0,4.0,60,0.00,,,0.00,223.0,meteohub,2013-10-28 18:41:00,
2013-10-28 14:46:00,58.5,44.2,30.25,ENE,72,2.0,4.0,59,0.00,,,0.00,255.0,meteohub,2013-10-28 18:46:00,
2013-10-28 14:51:00,58.6,45.7,30.25,SE,128,1.0,4.0,62,0.00,,,0.00,227.0,meteohub,2013-10-28 18:51:00,
2013-10-28 14:56:00,59.0,46.0,30.25,NE,55,2.0,4.0,62,0.00,,,0.00,221.0,meteohub,2013-10-28 18:56:00,
2013-10-28 15:01:00,59.2,44.8,30.25,ESE,109,1.0,5.0,59,0.00,,,0.00,599.0,meteohub,2013-10-28 19:01:00,
2013-10-28 15:06:00,60.8,45.5,30.24,ENE,63,1.0,7.0,57,0.00,,,0.00,506.0,meteohub,2013-10-28 19:06:00,
2013-10-28 15:11:00,61.9,43.0,30.25,NNE,14,2.0,7.0,50,0.00,,,0.00,492.0,meteohub,2013-10-28 19:11:00,
2013-10-28 15:16:00,61.7,42.8,30.24,NE,51,1.0,7.0,50,0.00,,,0.00,478.0,meteohub,2013-10-28 19:16:00,
2013-10-28 15:21:00,61.9,44.1,30.24,NE,34,2.0,7.0,52,0.00,,,0.00,473.0,meteohub,2013-10-28 19:21:00,
2013-10-28 15:26:00,62.2,45.3,30.24,NE,51,2.0,7.0,54,0.00,,,0.00,464.0,meteohub,2013-10-28 19:26:00,
2013-10-28 15:32:00,62.8,46.4,30.24,NNE,32,1.0,7.0,55,0.00,,,0.00,457.0,meteohub,2013-10-28 19:32:00,
2013-10-28 15:37:00,63.0,46.0,30.24,East,90,1.0,7.0,54,0.00,,,0.00,438.0,meteohub,2013-10-28 19:37:00,
2013-10-28 15:42:00,62.8,46.9,30.24,ESE,113,1.0,7.0,56,0.00,,,0.00,432.0,meteohub,2013-10-28 19:42:00,
2013-10-28 15:47:00,63.0,45.1,30.24,East,87,0.0,4.0,52,0.00,,,0.00,420.0,meteohub,2013-10-28 19:47:00,
2013-10-28 15:52:00,62.8,47.3,30.24,ESE,102,2.0,5.0,57,0.00,,,0.00,403.0,meteohub,2013-10-28 19:52:00,
2013-10-28 15:57:00,62.8,47.8,30.24,SSE,156,4.0,6.0,58,0.00,,,0.00,388.0,meteohub,2013-10-28 19:57:00,
2013-10-28 16:02:00,62.6,48.9,30.24,NE,52,0.0,6.0,61,0.00,,,0.00,380.0,meteohub,2013-10-28 20:02:00,
2013-10-28 16:07:00,63.0,50.2,30.24,SSW,192,1.0,6.0,63,0.00,,,0.00,373.0,meteohub,2013-10-28 20:07:00,
2013-10-28 16:12:00,63.1,49.1,30.24,SE,129,4.0,5.0,60,0.00,,,0.00,359.0,meteohub,2013-10-28 20:12:00,
2013-10-28 16:17:00,63.0,49.3,30.24,SE,138,1.0,6.0,61,0.00,,,0.00,348.0,meteohub,2013-10-28 20:17:00,
2013-10-28 16:22:00,62.8,49.1,30.24,SE,138,0.0,6.0,61,0.00,,,0.00,336.0,meteohub,2013-10-28 20:22:00,
2013-10-28 16:27:00,63.5,51.1,30.24,South,191,2.0,6.0,64,0.00,,,0.00,320.0,meteohub,2013-10-28 20:27:00,
2013-10-28 16:32:00,63.7,51.6,30.23,SSE,165,3.0,6.0,65,0.00,,,0.00,308.0,meteohub,2013-10-28 20:32:00,
2013-10-28 16:37:00,63.7,51.6,30.24,South,173,4.0,6.0,65,0.00,,,0.00,290.0,meteohub,2013-10-28 20:37:00,
2013-10-28 16:42:00,63.3,50.5,30.25,SSW,205,0.0,5.0,63,0.00,,,0.00,279.0,meteohub,2013-10-28 20:42:00,
2013-10-28 16:47:00,63.3,51.4,30.25,SSE,153,2.0,4.0,65,0.00,,,0.00,265.0,meteohub,2013-10-28 20:47:00,
2013-10-28 16:52:00,63.1,51.6,30.25,SSE,159,1.0,4.0,66,0.00,,,0.00,253.0,meteohub,2013-10-28 20:52:00,
2013-10-28 16:57:00,63.1,50.7,30.25,SE,135,0.0,4.0,64,0.00,,,0.00,237.0,meteohub,2013-10-28 20:57:00,
2013-10-28 17:02:00,62.8,50.9,30.25,SE,134,0.0,4.0,65,0.00,,,0.00,223.0,meteohub,2013-10-28 21:02:00,
2013-10-28 17:07:00,63.0,51.4,30.25,SW,229,2.0,4.0,66,0.00,,,0.00,207.0,meteohub,2013-10-28 21:07:00,
2013-10-28 17:12:00,62.8,52.0,30.25,SSE,163,0.0,3.0,68,0.00,,,0.00,186.0,meteohub,2013-10-28 21:12:00,
2013-10-28 17:17:00,63.1,51.6,30.25,SE,134,2.0,4.0,66,0.00,,,0.00,160.0,meteohub,2013-10-28 21:17:00,
2013-10-28 17:22:00,62.6,51.4,30.25,South,174,3.0,4.0,67,0.00,,,0.00,134.0,meteohub,2013-10-28 21:22:00,
2013-10-28 17:27:00,62.6,52.0,30.25,South,169,0.0,4.0,68,0.00,,,0.00,102.0,meteohub,2013-10-28 21:27:00,
2013-10-28 17:32:00,62.4,51.3,30.25,SE,146,2.0,4.0,67,0.00,,,0.00,70.0,meteohub,2013-10-28 21:32:00,
2013-10-28 17:38:00,62.4,51.3,30.25,SSE,150,1.0,4.0,67,0.00,,,0.00,47.0,meteohub,2013-10-28 21:38:00,
2013-10-28 17:43:00,62.2,51.1,30.25,SE,133,1.0,3.0,67,0.00,,,0.00,40.0,meteohub,2013-10-28 21:43:00,
2013-10-28 17:48:00,61.7,51.1,30.25,SSE,154,0.0,4.0,68,0.00,,,0.00,33.0,meteohub,2013-10-28 21:48:00,
2013-10-28 17:53:00,61.3,51.4,30.25,SSE,153,0.0,4.0,70,0.00,,,0.00,35.0,meteohub,2013-10-28 21:53:00,
2013-10-28 17:58:00,61.3,51.8,30.26,SSE,153,1.0,4.0,71,0.00,,,0.00,32.0,meteohub,2013-10-28 21:58:00,
2013-10-28 18:03:00,60.8,51.3,30.26,SSE,153,0.0,2.0,71,0.00,,,0.00,32.0,meteohub,2013-10-28 22:03:00,
2013-10-28 18:08:00,59.9,51.3,30.26,SSE,153,0.0,1.0,73,0.00,,,0.00,30.0,meteohub,2013-10-28 22:08:00,
2013-10-28 18:13:00,59.7,51.4,30.26,SSE,153,0.0,1.0,74,0.00,,,0.00,26.0,meteohub,2013-10-28 22:13:00,
2013-10-28 18:18:00,59.4,51.1,30.27,SSE,153,0.0,1.0,74,0.00,,,0.00,23.0,meteohub,2013-10-28 22:18:00,
2013-10-28 18:24:00,58.8,50.5,30.27,SSE,154,0.0,1.0,74,0.00,,,0.00,19.0,meteohub,2013-10-28 22:24:00,
2013-10-28 18:29:00,58.5,50.9,30.27,SSE,153,0.0,1.0,76,0.00,,,0.00,14.0,meteohub,2013-10-28 22:29:00,
2013-10-28 18:34:00,57.7,50.5,30.27,SSE,153,0.0,0.0,77,0.00,,,0.00,11.0,meteohub,2013-10-28 22:34:00,
2013-10-28 18:39:00,57.2,50.0,30.27,SSE,153,0.0,0.0,77,0.00,,,0.00,7.0,meteohub,2013-10-28 22:39:00,
2013-10-28 18:44:00,56.5,50.0,30.28,SSE,153,0.0,0.0,79,0.00,,,0.00,0.0,meteohub,2013-10-28 22:44:00,
2013-10-28 18:49:00,55.8,49.6,30.28,SSE,153,0.0,0.0,80,0.00,,,0.00,0.0,meteohub,2013-10-28 22:49:00,
2013-10-28 18:54:00,55.0,49.3,30.29,SSE,153,0.0,0.0,81,0.00,,,0.00,0.0,meteohub,2013-10-28 22:54:00,
2013-10-28 18:59:00,54.3,49.3,30.29,SSE,153,0.0,0.0,83,0.00,,,0.00,0.0,meteohub,2013-10-28 22:59:00,
2013-10-28 19:04:00,53.8,48.7,30.29,SSE,153,0.0,0.0,83,0.00,,,0.00,0.0,meteohub,2013-10-28 23:04:00,
2013-10-28 19:09:00,53.2,48.6,30.29,SSE,153,0.0,0.0,84,0.00,,,0.00,0.0,meteohub,2013-10-28 23:09:00,
2013-10-28 19:14:00,52.7,48.0,30.30,SSE,153,0.0,0.0,84,0.00,,,0.00,0.0,meteohub,2013-10-28 23:14:00,
2013-10-28 19:20:00,52.2,47.8,30.30,SSE,153,0.0,0.0,85,0.00,,,0.00,0.0,meteohub,2013-10-28 23:20:00,
2013-10-28 19:25:00,51.6,47.3,30.30,SSE,153,0.0,0.0,85,0.00,,,0.00,0.0,meteohub,2013-10-28 23:25:00,
2013-10-28 19:30:00,51.3,47.3,30.30,SSE,153,0.0,0.0,86,0.00,,,0.00,0.0,meteohub,2013-10-28 23:30:00,
2013-10-28 19:35:00,50.7,46.9,30.30,SSE,154,0.0,0.0,87,0.00,,,0.00,0.0,meteohub,2013-10-28 23:35:00,
2013-10-28 19:40:00,50.2,46.4,30.31,SSE,153,0.0,0.0,87,0.00,,,0.00,0.0,meteohub,2013-10-28 23:40:00,
2013-10-28 19:45:00,49.6,45.9,30.31,SSE,153,0.0,0.0,87,0.00,,,0.00,0.0,meteohub,2013-10-28 23:45:00,
2013-10-28 19:50:00,49.3,45.9,30.31,SSE,153,0.0,0.0,88,0.00,,,0.00,0.0,meteohub,2013-10-28 23:50:00,
2013-10-28 19:55:00,48.9,45.9,30.32,SSE,153,0.0,0.0,89,0.00,,,0.00,0.0,meteohub,2013-10-28 23:55:00,
2013-10-28 20:00:00,48.6,45.5,30.32,SSE,153,0.0,0.0,89,0.00,,,0.00,0.0,meteohub,2013-10-29 00:00:00,
2013-10-28 20:06:00,48.2,45.3,30.32,SSE,154,0.0,0.0,90,0.00,,,0.00,0.0,meteohub,2013-10-29 00:06:00,
2013-10-28 20:11:00,47.8,45.0,30.32,SSE,153,0.0,0.0,90,0.00,,,0.00,0.0,meteohub,2013-10-29 00:11:00,
2013-10-28 20:16:00,47.5,44.8,30.33,SSE,153,0.0,0.0,90,0.00,,,0.00,0.0,meteohub,2013-10-29 00:16:00,
2013-10-28 20:21:00,47.1,44.4,30.33,SSE,153,0.0,0.0,90,0.00,,,0.00,0.0,meteohub,2013-10-29 00:21:00,
2013-10-28 20:26:00,46.9,44.4,30.33,SSE,153,0.0,0.0,91,0.00,,,0.00,0.0,meteohub,2013-10-29 00:26:00,
2013-10-28 20:31:00,46.8,44.6,30.33,SSE,153,0.0,0.0,92,0.00,,,0.00,0.0,meteohub,2013-10-29 00:31:00,
2013-10-28 20:36:00,46.4,44.2,30.33,SSE,153,0.0,0.0,92,0.00,,,0.00,0.0,meteohub,2013-10-29 00:36:00,
2013-10-28 20:42:00,46.0,43.9,30.33,SSE,154,0.0,0.0,92,0.00,,,0.00,0.0,meteohub,2013-10-29 00:42:00,
2013-10-28 20:47:00,45.9,43.7,30.33,SSE,153,0.0,0.0,92,0.00,,,0.00,0.0,meteohub,2013-10-29 00:47:00,
2013-10-28 20:52:00,45.7,43.5,30.33,SSE,153,1.0,0.0,92,0.00,,,0.00,0.0,meteohub,2013-10-29 00:52:00,
2013-10-28 20:57:00,45.3,43.2,30.33,SSE,153,0.0,1.0,92,0.00,,,0.00,0.0,meteohub,2013-10-29 00:57:00,
2013-10-28 21:02:00,45.0,42.8,30.33,SSE,153,0.0,1.0,92,0.00,,,0.00,0.0,meteohub,2013-10-29 01:02:00,
2013-10-28 21:07:00,44.8,42.6,30.33,SSE,153,0.0,1.0,92,0.00,,,0.00,0.0,meteohub,2013-10-29 01:07:00,
2013-10-28 21:12:00,44.4,42.4,30.33,SSE,153,0.0,1.0,93,0.00,,,0.00,0.0,meteohub,2013-10-29 01:12:00,
2013-10-28 21:17:00,44.2,42.3,30.34,SSE,153,0.0,0.0,93,0.00,,,0.00,0.0,meteohub,2013-10-29 01:17:00,
2013-10-28 21:25:00,44.1,42.4,30.34,SSE,153,0.0,0.0,94,0.00,,,0.00,0.0,meteohub,2013-10-29 01:25:00,
2013-10-28 21:30:00,43.9,41.9,30.34,SSE,153,0.0,0.0,93,0.00,,,0.00,0.0,meteohub,2013-10-29 01:30:00,
2013-10-28 21:35:00,43.5,41.9,30.34,SSE,153,0.0,0.0,94,0.00,,,0.00,0.0,meteohub,2013-10-29 01:35:00,
2013-10-28 21:40:00,43.3,41.5,30.34,SSE,154,0.0,0.0,93,0.00,,,0.00,0.0,meteohub,2013-10-29 01:40:00,
2013-10-28 21:45:00,43.2,41.5,30.35,SSE,153,0.0,0.0,94,0.00,,,0.00,0.0,meteohub,2013-10-29 01:45:00,
2013-10-28 21:50:00,43.0,41.4,30.35,SSE,153,0.0,0.0,94,0.00,,,0.00,0.0,meteohub,2013-10-29 01:50:00,
2013-10-28 21:55:00,42.8,41.2,30.35,SSE,153,0.0,0.0,94,0.00,,,0.00,0.0,meteohub,2013-10-29 01:55:00,
2013-10-28 22:01:00,42.6,41.4,30.35,SSE,154,0.0,0.0,95,0.00,,,0.00,0.0,meteohub,2013-10-29 02:01:00,
2013-10-28 22:06:00,42.4,40.8,30.35,SSE,153,0.0,0.0,94,0.00,,,0.00,0.0,meteohub,2013-10-29 02:06:00,
2013-10-28 22:11:00,42.3,40.6,30.35,SSE,153,0.0,0.0,94,0.00,,,0.00,0.0,meteohub,2013-10-29 02:11:00,
2013-10-28 22:16:00,42.1,40.5,30.35,SSE,153,0.0,0.0,94,0.00,,,0.00,0.0,meteohub,2013-10-29 02:16:00,
2013-10-28 22:21:00,41.9,40.3,30.35,SSE,154,0.0,0.0,94,0.00,,,0.00,0.0,meteohub,2013-10-29 02:21:00,
2013-10-28 22:26:00,41.7,40.5,30.36,SSE,153,0.0,0.0,95,0.00,,,0.00,0.0,meteohub,2013-10-29 02:26:00,
2013-10-28 22:31:00,41.7,40.5,30.36,SSE,153,0.0,0.0,95,0.00,,,0.00,0.0,meteohub,2013-10-29 02:31:00,
2013-10-28 22:36:00,41.5,40.3,30.37,SSE,153,0.0,0.0,95,0.00,,,0.00,0.0,meteohub,2013-10-29 02:36:00,
2013-10-28 22:41:00,41.4,40.1,30.37,SSE,153,0.0,0.0,95,0.00,,,0.00,0.0,meteohub,2013-10-29 02:41:00,
2013-10-28 22:47:00,41.4,40.1,30.37,SSE,153,0.0,0.0,95,0.00,,,0.00,0.0,meteohub,2013-10-29 02:47:00,
2013-10-28 22:52:00,41.2,39.9,30.37,SSE,154,0.0,0.0,95,0.00,,,0.00,0.0,meteohub,2013-10-29 02:52:00,
2013-10-28 22:57:00,40.8,39.6,30.36,SSE,153,0.0,0.0,95,0.00,,,0.00,0.0,meteohub,2013-10-29 02:57:00,
2013-10-28 23:02:00,40.8,39.6,30.36,SSE,153,0.0,0.0,95,0.00,,,0.00,0.0,meteohub,2013-10-29 03:02:00,
2013-10-28 23:07:00,40.6,39.4,30.36,SSE,153,0.0,0.0,95,0.00,,,0.00,0.0,meteohub,2013-10-29 03:07:00,
2013-10-28 23:12:00,40.6,39.4,30.36,SSE,154,0.0,0.0,95,0.00,,,0.00,0.0,meteohub,2013-10-29 03:12:00,
2013-10-28 23:17:00,40.5,39.2,30.36,SSE,154,0.0,0.0,95,0.00,,,0.00,0.0,meteohub,2013-10-29 03:17:00,
2013-10-28 23:22:00,40.3,39.0,30.36,SSE,153,0.0,0.0,95,0.00,,,0.00,0.0,meteohub,2013-10-29 03:22:00,
2013-10-28 23:27:00,40.1,38.8,30.36,SSE,153,0.0,0.0,95,0.00,,,0.00,0.0,meteohub,2013-10-29 03:27:00,
2013-10-28 23:32:00,39.9,38.7,30.37,SSE,153,0.0,0.0,95,0.00,,,0.00,0.0,meteohub,2013-10-29 03:32:00,
2013-10-28 23:37:00,39.9,38.7,30.37,SSE,154,0.0,0.0,95,0.00,,,0.00,0.0,meteohub,2013-10-29 03:37:00,
2013-10-28 23:42:00,39.7,38.5,30.37,SSE,153,0.0,0.0,95,0.00,,,0.00,0.0,meteohub,2013-10-29 03:42:00,
2013-10-28 23:47:00,39.6,38.3,30.37,SSE,153,0.0,0.0,95,0.00,,,0.00,0.0,meteohub,2013-10-29 03:47:00,
2013-10-28 23:52:00,39.4,38.1,30.37,SSE,153,0.0,0.0,95,0.00,,,0.00,0.0,meteohub,2013-10-29 03:52:00,
2013-10-28 23:58:00,39.2,37.9,30.38,SSE,153,0.0,0.0,95,0.00,,,0.00,0.0,meteohub,2013-10-29 03:58:00,